sensor_id;sensor_type;location;lat;lon;timestamp;P1;durP1;ratioP1;P2;durP2;ratioP2
74320;SDS011;62738;45.772;4.804;2023-06-14T00:01:29;5.18;;;3.72;;
74320;SDS011;62738;45.772;4.804;2023-06-14T00:03:55;7.45;;;4.10;;
74320;SDS011;62738;45.772;4.804;2023-06-14T00:06:22;6.38;;;4.35;;
74320;SDS011;62738;45.772;4.804;2023-06-14T00:08:50;8.05;;;4.57;;
74320;SDS011;62738;45.772;4.804;2023-06-14T00:11:17;5.45;;;4.03;;
74320;SDS011;62738;45.772;4.804;2023-06-14T00:13:44;7.50;;;4.60;;
74320;SDS011;62738;45.772;4.804;2023-06-14T00:16:10;6.47;;;4.57;;
74320;SDS011;62738;45.772;4.804;2023-06-14T00:18:37;8.60;;;4.60;;
74320;SDS011;62738;45.772;4.804;2023-06-14T00:21:05;10.35;;;4.85;;
74320;SDS011;62738;45.772;4.804;2023-06-14T00:23:31;8.95;;;5.07;;
74320;SDS011;62738;45.772;4.804;2023-06-14T00:25:58;11.15;;;5.00;;
74320;SDS011;62738;45.772;4.804;2023-06-14T00:28:25;9.75;;;5.25;;
74320;SDS011;62738;45.772;4.804;2023-06-14T00:30:51;6.88;;;4.70;;
74320;SDS011;62738;45.772;4.804;2023-06-14T00:33:18;8.18;;;5.25;;
74320;SDS011;62738;45.772;4.804;2023-06-14T00:35:44;9.43;;;5.30;;
74320;SDS011;62738;45.772;4.804;2023-06-14T00:38:11;9.18;;;5.35;;
74320;SDS011;62738;45.772;4.804;2023-06-14T00:40:38;9.82;;;5.78;;
74320;SDS011;62738;45.772;4.804;2023-06-14T00:43:04;9.10;;;5.80;;
74320;SDS011;62738;45.772;4.804;2023-06-14T00:45:32;7.50;;;5.95;;
74320;SDS011;62738;45.772;4.804;2023-06-14T00:48:02;9.32;;;5.43;;
74320;SDS011;62738;45.772;4.804;2023-06-14T00:50:32;7.03;;;5.60;;
74320;SDS011;62738;45.772;4.804;2023-06-14T00:53:00;15.10;;;5.60;;
74320;SDS011;62738;45.772;4.804;2023-06-14T00:55:27;8.30;;;5.95;;
74320;SDS011;62738;45.772;4.804;2023-06-14T00:57:55;8.48;;;6.05;;
74320;SDS011;62738;45.772;4.804;2023-06-14T01:00:22;10.43;;;6.53;;
74320;SDS011;62738;45.772;4.804;2023-06-14T01:02:48;9.02;;;6.00;;
74320;SDS011;62738;45.772;4.804;2023-06-14T01:05:18;8.75;;;5.55;;
74320;SDS011;62738;45.772;4.804;2023-06-14T01:10:26;8.57;;;5.07;;
74320;SDS011;62738;45.772;4.804;2023-06-14T01:12:58;8.07;;;4.93;;
74320;SDS011;62738;45.772;4.804;2023-06-14T01:15:33;9.77;;;5.78;;
74320;SDS011;62738;45.772;4.804;2023-06-14T01:18:01;8.55;;;6.03;;
74320;SDS011;62738;45.772;4.804;2023-06-14T01:20:32;8.05;;;5.20;;
74320;SDS011;62738;45.772;4.804;2023-06-14T01:23:03;10.07;;;6.20;;
74320;SDS011;62738;45.772;4.804;2023-06-14T01:25:30;10.18;;;6.15;;
74320;SDS011;62738;45.772;4.804;2023-06-14T01:28:00;11.80;;;5.70;;
74320;SDS011;62738;45.772;4.804;2023-06-14T01:30:29;9.70;;;5.88;;
74320;SDS011;62738;45.772;4.804;2023-06-14T01:32:57;11.63;;;5.68;;
74320;SDS011;62738;45.772;4.804;2023-06-14T01:35:24;12.82;;;6.93;;
74320;SDS011;62738;45.772;4.804;2023-06-14T01:37:51;10.05;;;6.22;;
74320;SDS011;62738;45.772;4.804;2023-06-14T01:40:19;8.93;;;5.47;;
74320;SDS011;62738;45.772;4.804;2023-06-14T01:42:47;8.90;;;6.25;;
74320;SDS011;62738;45.772;4.804;2023-06-14T01:45:16;12.93;;;6.15;;
74320;SDS011;62738;45.772;4.804;2023-06-14T01:47:44;8.43;;;5.30;;
74320;SDS011;62738;45.772;4.804;2023-06-14T01:50:13;9.13;;;4.85;;
74320;SDS011;62738;45.772;4.804;2023-06-14T01:52:40;12.93;;;5.05;;
74320;SDS011;62738;45.772;4.804;2023-06-14T01:55:07;8.43;;;4.95;;
74320;SDS011;62738;45.772;4.804;2023-06-14T01:57:34;9.75;;;4.60;;
74320;SDS011;62738;45.772;4.804;2023-06-14T02:00:01;9.27;;;4.90;;
74320;SDS011;62738;45.772;4.804;2023-06-14T02:02:29;6.22;;;4.00;;
74320;SDS011;62738;45.772;4.804;2023-06-14T02:04:56;8.55;;;4.78;;
74320;SDS011;62738;45.772;4.804;2023-06-14T02:07:23;8.07;;;4.95;;
74320;SDS011;62738;45.772;4.804;2023-06-14T02:09:51;9.50;;;4.75;;
74320;SDS011;62738;45.772;4.804;2023-06-14T02:12:17;7.93;;;4.68;;
74320;SDS011;62738;45.772;4.804;2023-06-14T02:14:44;6.18;;;4.32;;
74320;SDS011;62738;45.772;4.804;2023-06-14T02:17:11;7.75;;;4.53;;
74320;SDS011;62738;45.772;4.804;2023-06-14T02:19:38;7.55;;;4.97;;
74320;SDS011;62738;45.772;4.804;2023-06-14T02:22:05;8.38;;;5.18;;
74320;SDS011;62738;45.772;4.804;2023-06-14T02:24:31;11.20;;;5.45;;
74320;SDS011;62738;45.772;4.804;2023-06-14T02:26:58;9.82;;;4.97;;
74320;SDS011;62738;45.772;4.804;2023-06-14T02:29:25;6.18;;;4.72;;
74320;SDS011;62738;45.772;4.804;2023-06-14T02:31:52;8.77;;;5.40;;
74320;SDS011;62738;45.772;4.804;2023-06-14T02:34:18;8.70;;;5.07;;
74320;SDS011;62738;45.772;4.804;2023-06-14T02:36:46;8.77;;;5.15;;
74320;SDS011;62738;45.772;4.804;2023-06-14T02:39:14;11.07;;;5.90;;
74320;SDS011;62738;45.772;4.804;2023-06-14T02:41:40;10.85;;;5.88;;
74320;SDS011;62738;45.772;4.804;2023-06-14T02:44:07;10.85;;;6.93;;
74320;SDS011;62738;45.772;4.804;2023-06-14T02:46:34;8.60;;;6.05;;
74320;SDS011;62738;45.772;4.804;2023-06-14T02:49:00;10.02;;;6.38;;
74320;SDS011;62738;45.772;4.804;2023-06-14T02:51:27;12.07;;;6.75;;
74320;SDS011;62738;45.772;4.804;2023-06-14T02:53:54;12.98;;;7.75;;
74320;SDS011;62738;45.772;4.804;2023-06-14T02:56:21;11.48;;;7.45;;
74320;SDS011;62738;45.772;4.804;2023-06-14T02:58:48;14.05;;;7.80;;
74320;SDS011;62738;45.772;4.804;2023-06-14T03:01:15;11.07;;;7.32;;
74320;SDS011;62738;45.772;4.804;2023-06-14T03:03:43;14.13;;;7.50;;
74320;SDS011;62738;45.772;4.804;2023-06-14T03:06:10;11.88;;;7.57;;
74320;SDS011;62738;45.772;4.804;2023-06-14T03:08:40;14.40;;;7.55;;
74320;SDS011;62738;45.772;4.804;2023-06-14T03:11:07;9.80;;;7.03;;
74320;SDS011;62738;45.772;4.804;2023-06-14T03:13:35;13.75;;;7.38;;
74320;SDS011;62738;45.772;4.804;2023-06-14T03:16:01;9.30;;;7.55;;
74320;SDS011;62738;45.772;4.804;2023-06-14T03:18:31;11.48;;;6.72;;
74320;SDS011;62738;45.772;4.804;2023-06-14T03:21:02;12.00;;;7.05;;
74320;SDS011;62738;45.772;4.804;2023-06-14T03:23:29;13.20;;;6.32;;
74320;SDS011;62738;45.772;4.804;2023-06-14T03:25:56;9.52;;;6.22;;
74320;SDS011;62738;45.772;4.804;2023-06-14T03:28:23;10.07;;;6.03;;
74320;SDS011;62738;45.772;4.804;2023-06-14T03:30:50;8.15;;;5.55;;
74320;SDS011;62738;45.772;4.804;2023-06-14T03:33:16;10.20;;;5.90;;
74320;SDS011;62738;45.772;4.804;2023-06-14T03:35:43;11.32;;;6.00;;
74320;SDS011;62738;45.772;4.804;2023-06-14T03:38:10;9.27;;;6.20;;
74320;SDS011;62738;45.772;4.804;2023-06-14T03:40:36;10.05;;;5.75;;
74320;SDS011;62738;45.772;4.804;2023-06-14T03:43:03;9.50;;;6.43;;
74320;SDS011;62738;45.772;4.804;2023-06-14T03:45:30;8.88;;;5.93;;
74320;SDS011;62738;45.772;4.804;2023-06-14T03:47:57;12.35;;;6.22;;
74320;SDS011;62738;45.772;4.804;2023-06-14T03:50:24;12.52;;;6.20;;
74320;SDS011;62738;45.772;4.804;2023-06-14T03:52:51;9.10;;;6.50;;
74320;SDS011;62738;45.772;4.804;2023-06-14T03:55:18;10.93;;;6.30;;
74320;SDS011;62738;45.772;4.804;2023-06-14T03:57:48;16.05;;;6.60;;
74320;SDS011;62738;45.772;4.804;2023-06-14T04:00:15;9.00;;;6.00;;
74320;SDS011;62738;45.772;4.804;2023-06-14T04:02:42;9.98;;;6.32;;
74320;SDS011;62738;45.772;4.804;2023-06-14T04:05:10;8.90;;;6.13;;
74320;SDS011;62738;45.772;4.804;2023-06-14T04:07:37;9.45;;;6.20;;
74320;SDS011;62738;45.772;4.804;2023-06-14T04:10:06;11.45;;;6.57;;
74320;SDS011;62738;45.772;4.804;2023-06-14T04:12:34;11.45;;;6.90;;
74320;SDS011;62738;45.772;4.804;2023-06-14T04:15:01;10.55;;;7.05;;
74320;SDS011;62738;45.772;4.804;2023-06-14T04:17:44;13.75;;;6.95;;
74320;SDS011;62738;45.772;4.804;2023-06-14T04:20:11;10.60;;;6.45;;
74320;SDS011;62738;45.772;4.804;2023-06-14T04:22:38;10.90;;;7.00;;
74320;SDS011;62738;45.772;4.804;2023-06-14T04:25:04;11.35;;;6.25;;
74320;SDS011;62738;45.772;4.804;2023-06-14T04:27:32;11.25;;;6.88;;
74320;SDS011;62738;45.772;4.804;2023-06-14T04:30:02;9.85;;;6.53;;
74320;SDS011;62738;45.772;4.804;2023-06-14T04:32:29;9.88;;;6.57;;
74320;SDS011;62738;45.772;4.804;2023-06-14T04:35:00;7.90;;;6.07;;
74320;SDS011;62738;45.772;4.804;2023-06-14T04:37:30;9.18;;;6.03;;
74320;SDS011;62738;45.772;4.804;2023-06-14T04:39:56;10.68;;;6.43;;
74320;SDS011;62738;45.772;4.804;2023-06-14T04:42:24;9.43;;;6.00;;
74320;SDS011;62738;45.772;4.804;2023-06-14T04:44:51;8.73;;;6.40;;
74320;SDS011;62738;45.772;4.804;2023-06-14T04:49:48;11.50;;;5.90;;
74320;SDS011;62738;45.772;4.804;2023-06-14T04:52:16;7.93;;;6.05;;
74320;SDS011;62738;45.772;4.804;2023-06-14T04:54:43;8.93;;;5.85;;
74320;SDS011;62738;45.772;4.804;2023-06-14T04:57:10;9.15;;;5.88;;
74320;SDS011;62738;45.772;4.804;2023-06-14T04:59:40;10.65;;;5.80;;
74320;SDS011;62738;45.772;4.804;2023-06-14T05:02:07;11.88;;;5.75;;
74320;SDS011;62738;45.772;4.804;2023-06-14T05:04:35;8.43;;;5.63;;
74320;SDS011;62738;45.772;4.804;2023-06-14T05:07:06;11.85;;;5.95;;
74320;SDS011;62738;45.772;4.804;2023-06-14T05:09:34;14.70;;;6.25;;
74320;SDS011;62738;45.772;4.804;2023-06-14T05:12:02;10.43;;;5.95;;
74320;SDS011;62738;45.772;4.804;2023-06-14T05:14:29;6.88;;;4.07;;
74320;SDS011;62738;45.772;4.804;2023-06-14T05:16:56;8.13;;;4.20;;
74320;SDS011;62738;45.772;4.804;2023-06-14T05:19:23;9.00;;;4.03;;
74320;SDS011;62738;45.772;4.804;2023-06-14T05:21:50;8.70;;;3.97;;
74320;SDS011;62738;45.772;4.804;2023-06-14T05:24:17;9.18;;;4.30;;
74320;SDS011;62738;45.772;4.804;2023-06-14T05:26:44;7.15;;;4.10;;
74320;SDS011;62738;45.772;4.804;2023-06-14T05:29:11;7.40;;;4.15;;
74320;SDS011;62738;45.772;4.804;2023-06-14T05:31:38;7.28;;;3.70;;
74320;SDS011;62738;45.772;4.804;2023-06-14T05:34:05;10.90;;;4.13;;
74320;SDS011;62738;45.772;4.804;2023-06-14T05:36:32;8.02;;;4.15;;
74320;SDS011;62738;45.772;4.804;2023-06-14T05:38:59;8.20;;;4.38;;
74320;SDS011;62738;45.772;4.804;2023-06-14T05:41:26;19.15;;;6.30;;
74320;SDS011;62738;45.772;4.804;2023-06-14T05:43:53;27.30;;;5.25;;
74320;SDS011;62738;45.772;4.804;2023-06-14T05:46:21;21.88;;;5.60;;
74320;SDS011;62738;45.772;4.804;2023-06-14T05:48:51;10.80;;;5.70;;
74320;SDS011;62738;45.772;4.804;2023-06-14T05:51:18;9.65;;;5.47;;
74320;SDS011;62738;45.772;4.804;2023-06-14T05:53:45;8.65;;;3.90;;
74320;SDS011;62738;45.772;4.804;2023-06-14T05:56:13;5.35;;;3.35;;
74320;SDS011;62738;45.772;4.804;2023-06-14T05:58:40;8.02;;;4.22;;
74320;SDS011;62738;45.772;4.804;2023-06-14T06:01:07;10.77;;;4.40;;
74320;SDS011;62738;45.772;4.804;2023-06-14T06:03:34;8.55;;;3.97;;
74320;SDS011;62738;45.772;4.804;2023-06-14T06:06:01;7.75;;;3.75;;
74320;SDS011;62738;45.772;4.804;2023-06-14T06:08:29;8.40;;;3.42;;
74320;SDS011;62738;45.772;4.804;2023-06-14T06:10:56;7.63;;;3.63;;
74320;SDS011;62738;45.772;4.804;2023-06-14T06:13:23;5.82;;;3.42;;
74320;SDS011;62738;45.772;4.804;2023-06-14T06:15:49;8.77;;;3.63;;
74320;SDS011;62738;45.772;4.804;2023-06-14T06:18:16;9.02;;;3.88;;
74320;SDS011;62738;45.772;4.804;2023-06-14T06:20:43;10.95;;;3.70;;
74320;SDS011;62738;45.772;4.804;2023-06-14T06:23:10;6.95;;;3.95;;
74320;SDS011;62738;45.772;4.804;2023-06-14T06:25:37;7.65;;;3.85;;
74320;SDS011;62738;45.772;4.804;2023-06-14T06:28:03;5.07;;;3.80;;
74320;SDS011;62738;45.772;4.804;2023-06-14T06:30:30;7.72;;;3.83;;
74320;SDS011;62738;45.772;4.804;2023-06-14T06:32:57;9.77;;;3.95;;
74320;SDS011;62738;45.772;4.804;2023-06-14T06:35:24;9.80;;;4.38;;
74320;SDS011;62738;45.772;4.804;2023-06-14T06:37:51;11.35;;;4.25;;
74320;SDS011;62738;45.772;4.804;2023-06-14T06:40:18;7.72;;;4.32;;
74320;SDS011;62738;45.772;4.804;2023-06-14T06:42:44;7.05;;;4.20;;
74320;SDS011;62738;45.772;4.804;2023-06-14T06:45:11;7.57;;;4.18;;
74320;SDS011;62738;45.772;4.804;2023-06-14T06:47:38;9.18;;;3.97;;
74320;SDS011;62738;45.772;4.804;2023-06-14T06:50:05;8.80;;;3.67;;
74320;SDS011;62738;45.772;4.804;2023-06-14T06:52:33;6.78;;;4.38;;
74320;SDS011;62738;45.772;4.804;2023-06-14T06:55:00;7.90;;;4.45;;
74320;SDS011;62738;45.772;4.804;2023-06-14T06:57:28;7.43;;;4.22;;
74320;SDS011;62738;45.772;4.804;2023-06-14T06:59:58;7.40;;;4.28;;
74320;SDS011;62738;45.772;4.804;2023-06-14T07:02:25;11.38;;;4.72;;
74320;SDS011;62738;45.772;4.804;2023-06-14T07:04:51;9.70;;;4.80;;
74320;SDS011;62738;45.772;4.804;2023-06-14T07:07:18;6.13;;;4.53;;
74320;SDS011;62738;45.772;4.804;2023-06-14T07:09:45;6.45;;;4.45;;
74320;SDS011;62738;45.772;4.804;2023-06-14T07:12:12;6.90;;;4.47;;
74320;SDS011;62738;45.772;4.804;2023-06-14T07:14:38;11.60;;;4.57;;
74320;SDS011;62738;45.772;4.804;2023-06-14T07:17:05;7.72;;;4.18;;
74320;SDS011;62738;45.772;4.804;2023-06-14T07:19:32;10.88;;;3.83;;
74320;SDS011;62738;45.772;4.804;2023-06-14T07:21:59;7.60;;;4.07;;
74320;SDS011;62738;45.772;4.804;2023-06-14T07:24:26;6.30;;;3.92;;
74320;SDS011;62738;45.772;4.804;2023-06-14T07:26:54;8.05;;;4.18;;
74320;SDS011;62738;45.772;4.804;2023-06-14T07:29:22;7.75;;;3.67;;
74320;SDS011;62738;45.772;4.804;2023-06-14T07:31:49;8.63;;;3.65;;
74320;SDS011;62738;45.772;4.804;2023-06-14T07:34:16;9.20;;;3.55;;
74320;SDS011;62738;45.772;4.804;2023-06-14T07:36:42;5.70;;;3.70;;
74320;SDS011;62738;45.772;4.804;2023-06-14T07:39:10;7.25;;;3.97;;
74320;SDS011;62738;45.772;4.804;2023-06-14T07:41:37;7.15;;;4.22;;
74320;SDS011;62738;45.772;4.804;2023-06-14T07:44:04;9.60;;;4.07;;
74320;SDS011;62738;45.772;4.804;2023-06-14T07:46:31;5.60;;;3.85;;
74320;SDS011;62738;45.772;4.804;2023-06-14T07:48:57;5.95;;;4.07;;
74320;SDS011;62738;45.772;4.804;2023-06-14T07:51:24;6.75;;;3.83;;
74320;SDS011;62738;45.772;4.804;2023-06-14T07:53:51;7.70;;;4.00;;
74320;SDS011;62738;45.772;4.804;2023-06-14T07:56:18;6.15;;;4.15;;
74320;SDS011;62738;45.772;4.804;2023-06-14T07:58:44;6.03;;;3.92;;
74320;SDS011;62738;45.772;4.804;2023-06-14T08:01:12;8.93;;;4.50;;
74320;SDS011;62738;45.772;4.804;2023-06-14T08:03:38;5.68;;;3.70;;
74320;SDS011;62738;45.772;4.804;2023-06-14T08:06:06;7.53;;;4.22;;
74320;SDS011;62738;45.772;4.804;2023-06-14T08:08:33;6.50;;;4.25;;
74320;SDS011;62738;45.772;4.804;2023-06-14T08:11:00;6.80;;;4.10;;
74320;SDS011;62738;45.772;4.804;2023-06-14T08:13:27;6.47;;;4.40;;
74320;SDS011;62738;45.772;4.804;2023-06-14T08:15:54;7.28;;;4.50;;
74320;SDS011;62738;45.772;4.804;2023-06-14T08:18:21;5.50;;;4.28;;
74320;SDS011;62738;45.772;4.804;2023-06-14T08:20:48;7.70;;;4.88;;
74320;SDS011;62738;45.772;4.804;2023-06-14T08:23:15;7.90;;;4.55;;
74320;SDS011;62738;45.772;4.804;2023-06-14T08:25:45;5.40;;;4.40;;
74320;SDS011;62738;45.772;4.804;2023-06-14T08:28:12;6.95;;;4.40;;
74320;SDS011;62738;45.772;4.804;2023-06-14T08:30:38;8.43;;;4.55;;
74320;SDS011;62738;45.772;4.804;2023-06-14T08:33:05;7.68;;;4.35;;
74320;SDS011;62738;45.772;4.804;2023-06-14T08:35:42;8.35;;;4.30;;
74320;SDS011;62738;45.772;4.804;2023-06-14T08:38:10;5.88;;;4.57;;
74320;SDS011;62738;45.772;4.804;2023-06-14T08:40:38;8.35;;;4.63;;
74320;SDS011;62738;45.772;4.804;2023-06-14T08:43:06;8.25;;;4.70;;
74320;SDS011;62738;45.772;4.804;2023-06-14T08:45:33;12.98;;;4.70;;
74320;SDS011;62738;45.772;4.804;2023-06-14T08:48:00;8.40;;;4.72;;
74320;SDS011;62738;45.772;4.804;2023-06-14T08:50:28;6.97;;;4.65;;
74320;SDS011;62738;45.772;4.804;2023-06-14T08:52:58;8.45;;;4.30;;
74320;SDS011;62738;45.772;4.804;2023-06-14T08:55:28;6.90;;;4.40;;
74320;SDS011;62738;45.772;4.804;2023-06-14T08:58:01;11.10;;;3.97;;
74320;SDS011;62738;45.772;4.804;2023-06-14T09:00:30;7.78;;;4.50;;
74320;SDS011;62738;45.772;4.804;2023-06-14T09:02:59;6.28;;;4.13;;
74320;SDS011;62738;45.772;4.804;2023-06-14T09:05:27;9.07;;;4.82;;
74320;SDS011;62738;45.772;4.804;2023-06-14T09:07:54;6.53;;;4.13;;
74320;SDS011;62738;45.772;4.804;2023-06-14T09:10:23;10.65;;;4.68;;
74320;SDS011;62738;45.772;4.804;2023-06-14T09:12:52;8.50;;;4.35;;
74320;SDS011;62738;45.772;4.804;2023-06-14T09:15:19;8.90;;;4.53;;
74320;SDS011;62738;45.772;4.804;2023-06-14T09:17:47;6.47;;;4.40;;
74320;SDS011;62738;45.772;4.804;2023-06-14T09:20:14;9.18;;;4.43;;
74320;SDS011;62738;45.772;4.804;2023-06-14T09:22:45;8.32;;;4.63;;
74320;SDS011;62738;45.772;4.804;2023-06-14T09:25:12;6.90;;;4.00;;
74320;SDS011;62738;45.772;4.804;2023-06-14T09:27:58;7.38;;;4.43;;
74320;SDS011;62738;45.772;4.804;2023-06-14T09:30:25;8.80;;;4.68;;
74320;SDS011;62738;45.772;4.804;2023-06-14T09:32:52;5.97;;;4.53;;
74320;SDS011;62738;45.772;4.804;2023-06-14T09:35:20;7.53;;;4.28;;
74320;SDS011;62738;45.772;4.804;2023-06-14T09:37:47;6.78;;;4.30;;
74320;SDS011;62738;45.772;4.804;2023-06-14T09:40:13;8.90;;;4.25;;
74320;SDS011;62738;45.772;4.804;2023-06-14T09:42:47;5.93;;;4.57;;
74320;SDS011;62738;45.772;4.804;2023-06-14T09:45:14;7.03;;;3.97;;
74320;SDS011;62738;45.772;4.804;2023-06-14T09:47:45;9.35;;;4.35;;
74320;SDS011;62738;45.772;4.804;2023-06-14T09:50:31;8.15;;;3.97;;
74320;SDS011;62738;45.772;4.804;2023-06-14T09:52:59;8.45;;;3.72;;
74320;SDS011;62738;45.772;4.804;2023-06-14T09:55:37;7.20;;;4.18;;
74320;SDS011;62738;45.772;4.804;2023-06-14T09:58:06;6.57;;;4.05;;
74320;SDS011;62738;45.772;4.804;2023-06-14T10:00:35;7.15;;;4.28;;
74320;SDS011;62738;45.772;4.804;2023-06-14T10:03:05;6.20;;;3.83;;
74320;SDS011;62738;45.772;4.804;2023-06-14T10:05:38;4.93;;;3.33;;
74320;SDS011;62738;45.772;4.804;2023-06-14T10:08:08;6.95;;;3.88;;
74320;SDS011;62738;45.772;4.804;2023-06-14T10:10:35;7.35;;;3.80;;
74320;SDS011;62738;45.772;4.804;2023-06-14T10:13:05;4.22;;;3.50;;
74320;SDS011;62738;45.772;4.804;2023-06-14T10:18:05;5.40;;;4.00;;
74320;SDS011;62738;45.772;4.804;2023-06-14T10:20:36;6.90;;;3.58;;
74320;SDS011;62738;45.772;4.804;2023-06-14T10:23:10;10.40;;;4.05;;
74320;SDS011;62738;45.772;4.804;2023-06-14T10:25:42;7.68;;;3.92;;
74320;SDS011;62738;45.772;4.804;2023-06-14T10:28:19;7.20;;;3.60;;
74320;SDS011;62738;45.772;4.804;2023-06-14T10:31:05;10.68;;;4.13;;
74320;SDS011;62738;45.772;4.804;2023-06-14T10:33:39;6.90;;;3.95;;
74320;SDS011;62738;45.772;4.804;2023-06-14T10:41:39;8.23;;;4.38;;
74320;SDS011;62738;45.772;4.804;2023-06-14T10:46:39;7.90;;;4.10;;
74320;SDS011;62738;45.772;4.804;2023-06-14T10:49:09;10.02;;;4.07;;
74320;SDS011;62738;45.772;4.804;2023-06-14T10:51:39;5.90;;;4.22;;
74320;SDS011;62738;45.772;4.804;2023-06-14T10:54:21;5.15;;;3.90;;
74320;SDS011;62738;45.772;4.804;2023-06-14T10:56:52;7.60;;;3.85;;
74320;SDS011;62738;45.772;4.804;2023-06-14T10:59:20;5.15;;;3.65;;
74320;SDS011;62738;45.772;4.804;2023-06-14T11:01:52;5.72;;;4.00;;
74320;SDS011;62738;45.772;4.804;2023-06-14T11:04:33;5.53;;;4.00;;
74320;SDS011;62738;45.772;4.804;2023-06-14T11:07:10;6.65;;;4.10;;
74320;SDS011;62738;45.772;4.804;2023-06-14T11:13:09;6.28;;;4.30;;
74320;SDS011;62738;45.772;4.804;2023-06-14T11:15:36;6.47;;;3.67;;
74320;SDS011;62738;45.772;4.804;2023-06-14T11:18:05;6.05;;;4.03;;
74320;SDS011;62738;45.772;4.804;2023-06-14T11:20:34;5.60;;;4.10;;
74320;SDS011;62738;45.772;4.804;2023-06-14T11:23:04;5.97;;;4.00;;
74320;SDS011;62738;45.772;4.804;2023-06-14T11:25:31;5.53;;;3.72;;
74320;SDS011;62738;45.772;4.804;2023-06-14T11:27:58;5.00;;;3.63;;
74320;SDS011;62738;45.772;4.804;2023-06-14T11:30:25;6.05;;;3.60;;
74320;SDS011;62738;45.772;4.804;2023-06-14T11:32:52;7.20;;;4.10;;
74320;SDS011;62738;45.772;4.804;2023-06-14T11:35:24;8.52;;;4.03;;
74320;SDS011;62738;45.772;4.804;2023-06-14T11:37:52;5.45;;;3.97;;
74320;SDS011;62738;45.772;4.804;2023-06-14T11:40:22;6.55;;;4.20;;
74320;SDS011;62738;45.772;4.804;2023-06-14T11:42:54;7.50;;;3.92;;
74320;SDS011;62738;45.772;4.804;2023-06-14T11:45:24;8.40;;;4.30;;
74320;SDS011;62738;45.772;4.804;2023-06-14T11:47:51;7.05;;;4.30;;
74320;SDS011;62738;45.772;4.804;2023-06-14T11:50:20;5.45;;;3.65;;
74320;SDS011;62738;45.772;4.804;2023-06-14T11:52:55;7.22;;;4.00;;
74320;SDS011;62738;45.772;4.804;2023-06-14T11:55:23;6.47;;;4.00;;
74320;SDS011;62738;45.772;4.804;2023-06-14T11:57:50;8.57;;;3.85;;
74320;SDS011;62738;45.772;4.804;2023-06-14T12:00:22;9.35;;;4.13;;
74320;SDS011;62738;45.772;4.804;2023-06-14T12:02:54;6.72;;;3.67;;
74320;SDS011;62738;45.772;4.804;2023-06-14T12:05:24;6.60;;;3.80;;
74320;SDS011;62738;45.772;4.804;2023-06-14T12:07:59;6.88;;;4.10;;
74320;SDS011;62738;45.772;4.804;2023-06-14T12:10:27;5.30;;;3.65;;
74320;SDS011;62738;45.772;4.804;2023-06-14T12:13:00;8.00;;;3.85;;
74320;SDS011;62738;45.772;4.804;2023-06-14T12:15:30;4.05;;;3.17;;
74320;SDS011;62738;45.772;4.804;2023-06-14T12:17:58;6.45;;;3.80;;
74320;SDS011;62738;45.772;4.804;2023-06-14T12:20:28;9.73;;;4.00;;
74320;SDS011;62738;45.772;4.804;2023-06-14T12:23:02;6.28;;;3.22;;
74320;SDS011;62738;45.772;4.804;2023-06-14T12:25:33;8.60;;;3.47;;
74320;SDS011;62738;45.772;4.804;2023-06-14T12:28:08;5.65;;;3.50;;
74320;SDS011;62738;45.772;4.804;2023-06-14T12:30:35;6.55;;;3.60;;
74320;SDS011;62738;45.772;4.804;2023-06-14T12:33:03;10.50;;;3.70;;
74320;SDS011;62738;45.772;4.804;2023-06-14T12:35:30;5.25;;;3.25;;
74320;SDS011;62738;45.772;4.804;2023-06-14T12:37:57;7.10;;;3.70;;
74320;SDS011;62738;45.772;4.804;2023-06-14T12:40:24;8.00;;;3.50;;
74320;SDS011;62738;45.772;4.804;2023-06-14T12:42:52;7.30;;;3.30;;
74320;SDS011;62738;45.772;4.804;2023-06-14T12:45:19;5.20;;;3.40;;
74320;SDS011;62738;45.772;4.804;2023-06-14T12:47:46;4.93;;;3.40;;
74320;SDS011;62738;45.772;4.804;2023-06-14T12:50:13;6.80;;;3.00;;
74320;SDS011;62738;45.772;4.804;2023-06-14T12:52:40;5.30;;;3.50;;
74320;SDS011;62738;45.772;4.804;2023-06-14T12:55:07;6.75;;;3.40;;
74320;SDS011;62738;45.772;4.804;2023-06-14T12:57:34;4.35;;;3.10;;
74320;SDS011;62738;45.772;4.804;2023-06-14T13:00:03;4.38;;;3.50;;
74320;SDS011;62738;45.772;4.804;2023-06-14T13:02:31;4.22;;;3.00;;
74320;SDS011;62738;45.772;4.804;2023-06-14T13:04:57;5.63;;;3.30;;
74320;SDS011;62738;45.772;4.804;2023-06-14T13:07:25;6.40;;;3.63;;
74320;SDS011;62738;45.772;4.804;2023-06-14T13:09:51;7.13;;;3.40;;
74320;SDS011;62738;45.772;4.804;2023-06-14T13:12:18;5.75;;;3.47;;
74320;SDS011;62738;45.772;4.804;2023-06-14T13:14:44;7.28;;;3.40;;
74320;SDS011;62738;45.772;4.804;2023-06-14T13:17:11;7.63;;;3.58;;
74320;SDS011;62738;45.772;4.804;2023-06-14T13:19:38;9.10;;;3.70;;
74320;SDS011;62738;45.772;4.804;2023-06-14T13:22:04;5.00;;;3.17;;
74320;SDS011;62738;45.772;4.804;2023-06-14T13:24:31;7.03;;;3.28;;
74320;SDS011;62738;45.772;4.804;2023-06-14T13:26:58;8.75;;;3.63;;
74320;SDS011;62738;45.772;4.804;2023-06-14T13:29:25;8.10;;;3.38;;
74320;SDS011;62738;45.772;4.804;2023-06-14T13:31:53;7.00;;;3.50;;
74320;SDS011;62738;45.772;4.804;2023-06-14T13:34:20;6.10;;;3.63;;
74320;SDS011;62738;45.772;4.804;2023-06-14T13:36:48;5.68;;;3.42;;
74320;SDS011;62738;45.772;4.804;2023-06-14T13:39:16;6.88;;;3.35;;
74320;SDS011;62738;45.772;4.804;2023-06-14T13:41:42;5.45;;;3.53;;
74320;SDS011;62738;45.772;4.804;2023-06-14T13:44:09;7.18;;;3.10;;
74320;SDS011;62738;45.772;4.804;2023-06-14T13:46:42;6.40;;;3.38;;
74320;SDS011;62738;45.772;4.804;2023-06-14T13:49:09;6.57;;;3.45;;
74320;SDS011;62738;45.772;4.804;2023-06-14T13:51:36;8.65;;;3.55;;
74320;SDS011;62738;45.772;4.804;2023-06-14T13:54:03;8.02;;;3.70;;
74320;SDS011;62738;45.772;4.804;2023-06-14T13:56:30;6.47;;;2.95;;
74320;SDS011;62738;45.772;4.804;2023-06-14T13:58:57;5.85;;;3.40;;
74320;SDS011;62738;45.772;4.804;2023-06-14T14:01:23;8.75;;;3.22;;
74320;SDS011;62738;45.772;4.804;2023-06-14T14:03:52;8.32;;;3.30;;
74320;SDS011;62738;45.772;4.804;2023-06-14T14:06:19;5.75;;;2.58;;
74320;SDS011;62738;45.772;4.804;2023-06-14T14:08:46;6.47;;;3.65;;
74320;SDS011;62738;45.772;4.804;2023-06-14T14:11:13;6.50;;;3.33;;
74320;SDS011;62738;45.772;4.804;2023-06-14T14:13:42;6.22;;;3.35;;
74320;SDS011;62738;45.772;4.804;2023-06-14T14:16:09;5.47;;;3.15;;
74320;SDS011;62738;45.772;4.804;2023-06-14T14:18:37;4.57;;;3.28;;
74320;SDS011;62738;45.772;4.804;2023-06-14T14:21:05;7.35;;;4.32;;
74320;SDS011;62738;45.772;4.804;2023-06-14T14:23:32;5.18;;;2.90;;
74320;SDS011;62738;45.772;4.804;2023-06-14T14:25:58;6.45;;;3.67;;
74320;SDS011;62738;45.772;4.804;2023-06-14T14:28:27;5.25;;;3.00;;
74320;SDS011;62738;45.772;4.804;2023-06-14T14:30:53;5.40;;;2.65;;
74320;SDS011;62738;45.772;4.804;2023-06-14T14:33:21;6.18;;;2.60;;
74320;SDS011;62738;45.772;4.804;2023-06-14T14:35:48;5.07;;;2.70;;
74320;SDS011;62738;45.772;4.804;2023-06-14T14:38:15;3.72;;;2.40;;
74320;SDS011;62738;45.772;4.804;2023-06-14T14:40:42;4.25;;;2.70;;
74320;SDS011;62738;45.772;4.804;2023-06-14T14:43:10;5.13;;;2.50;;
74320;SDS011;62738;45.772;4.804;2023-06-14T14:45:37;7.57;;;2.78;;
74320;SDS011;62738;45.772;4.804;2023-06-14T14:48:04;4.28;;;2.60;;
74320;SDS011;62738;45.772;4.804;2023-06-14T14:50:32;7.60;;;2.40;;
74320;SDS011;62738;45.772;4.804;2023-06-14T14:52:59;6.57;;;2.75;;
74320;SDS011;62738;45.772;4.804;2023-06-14T14:55:26;3.17;;;2.45;;
74320;SDS011;62738;45.772;4.804;2023-06-14T14:57:53;5.60;;;2.42;;
74320;SDS011;62738;45.772;4.804;2023-06-14T15:00:19;7.07;;;2.58;;
74320;SDS011;62738;45.772;4.804;2023-06-14T15:02:46;6.50;;;2.58;;
74320;SDS011;62738;45.772;4.804;2023-06-14T15:05:13;6.20;;;2.40;;
74320;SDS011;62738;45.772;4.804;2023-06-14T15:07:40;3.92;;;2.22;;
74320;SDS011;62738;45.772;4.804;2023-06-14T15:10:07;5.13;;;2.33;;